Station info - map view · info · telemetry · weather · raw · status · beacons · messages · bulletins · browse · moving · my account
Callsign, ship name or locator: Clear       
It is possible to search using wildcards (*?) after a prefix. Example: OH*
APRS station IK3PDD-9 - show graphs
Map loading...
Mic-E message: En route
Location: 45°27.06' N 10°59.73' E - locator JN55LK98LF - show map - static map
1.2 miles North bearing 355° from Verona, Provincia di Verona, Veneto, Italy [?]
5.3 miles West bearing 292° from San Martino Buon Albergo, Provincia di Verona, Veneto, Italy
64.5 miles West bearing 271° from Venice, Provincia di Venezia, Veneto, Italy
68.2 miles North bearing 346° from Bologna, Provincia di Bologna, Emilia-Romagna, Italy
Last position: 2019-02-17 06:08:07 EST (10h34m ago)
2019-02-17 12:08:07 CET local time at Verona, Italy [?]
Altitude: 95 ft
Course: 126°
Speed: 2 MPH
Device: Kenwood: TM-D700 (rig)
Last path: IK3PDD-9>TU2W06 via WIDE2-2,qAR,IQ3VQ (good)
Positions stored: 56809
Packet rate: 20 seconds between packets on average during 960 seconds.
This station is transmitting packets at a high rate, which can cause congestion in the APRS network.
Other SSIDs: IK3PDD IK3PDD-12 IK3PDD-13 IK3PDD-15 IK3PDD-7
Stations near current position of IK3PDD-9 - show more
callsign distance last heard - EST      callsign distance last heard - EST
IK3PDD-760.7 yards 70°2019-02-17 11:58:35 IK3PDD0.8 miles 210°2019-01-25 15:35:32
IZ3SLY-H00.9 miles 87°2019-02-11 07:00:37 IZ3SLY-30.9 miles 86°2019-02-17 16:40:52
IZ3SLY-10.9 miles 87°2019-02-13 10:23:23 IW3HV1.5 miles 230°2019-02-17 16:19:37
IZ3KVH1.7 miles 349°2019-02-16 13:36:46 IZ3KVH-91.7 miles 350°2019-02-16 09:29:27
IU3GNB-101.8 miles 320°2019-01-28 06:16:13 IZ3XJN-51.9 miles 244°2019-01-23 13:17:24
145.575-a2.1 miles 195°2019-02-17 16:19:16 I3YBD-H02.5 miles 183°2019-02-11 14:32:00
I3YBD-H22.5 miles 183°2019-01-23 15:31:11 PS-I3YBD22.5 miles 183°2019-02-16 11:05:08
I3YBD-R22.5 miles 183°2019-01-19 07:01:32 I3YBD-R2.5 miles 183°2019-01-22 08:31:21
I3YBD2-H02.5 miles 183°2019-02-16 11:00:45 I3YBD2 C2.5 miles 183°2019-02-07 02:09:50
I3YBD2-C2.5 miles 183°2019-02-07 02:10:00 I3YBD2-N2.5 miles 183°2019-02-16 10:59:24
Stations which heard IK3PDD-9 directly on radio –
callsign pkts first heard - EST last heard longest (tx => rx) longest at - EST
IR4U-2 22 2019-02-10 11:05:43 2019-02-10 11:55:10 JN55MQ > JN64CD 120.7 miles 151° 2019-02-10 11:32:43
IR3BT 1 2019-02-10 11:42:32 2019-02-10 11:42:32 JN55NP > JN56MD 34.1 miles 356° 2019-02-10 11:42:32
IR2AO 1 2019-02-10 11:44:04 2019-02-10 11:44:04 JN55NP > JN45PM 85.3 miles 265° 2019-02-10 11:44:04
IQ3VQ 199 2019-02-08 11:06:24 2019-02-17 06:08:07 JN55JO > JN55MK 17.1 miles 132° 2019-02-17 05:25:45
IZ3SLY-3 76 2019-02-08 11:11:27 2019-02-10 12:34:35 JN55MQ > JN55MK 15.7 miles 189° 2019-02-10 11:31:13
IR2BT 1 2019-02-10 12:06:13 2019-02-10 12:06:13 JN55NM > JN55FO 31.4 miles 282° 2019-02-10 12:06:13
IZ3LSV-1 1 2019-02-10 11:53:53 2019-02-10 11:53:53 JN55NO > JN65HP 72.0 miles 88° 2019-02-10 11:53:53
IZ4UFQ-10 12 2019-02-10 11:15:47 2019-02-10 11:59:47 JN55MQ > JN54QL 82.9 miles 170° 2019-02-10 11:27:16
IR2Y 28 2019-02-10 11:10:59 2019-02-17 05:24:50 JN55NQ > JN55EK 38.7 miles 243° 2019-02-10 11:36:39
IR4AZ 25 2019-02-10 11:05:39 2019-02-10 12:05:38 JN55MQ > JN54TU 63.2 miles 153° 2019-02-10 11:32:43
S59DGO-5 3 2019-02-10 11:41:41 2019-02-10 12:04:25 JN55NO > JN75FO 161.9 miles 89° 2019-02-10 12:04:25
IR4BA 21 2019-02-10 11:03:55 2019-02-10 12:15:56 JN55MQ > JN54NF 101.1 miles 179° 2019-02-10 11:32:55
IR2S 3 2019-02-10 11:42:47 2019-02-10 12:06:40 JN55NM > JN55DQ 41.3 miles 285° 2019-02-10 12:06:40
IR2CV 13 2019-02-10 11:35:33 2019-02-17 05:46:05 JN55NQ > JN55JC 43.8 miles 201° 2019-02-10 11:35:33
IW5CBL-15 37 2019-02-10 11:04:47 2019-02-10 12:15:33 JN55NQ > JN44WL 102.5 miles 216° 2019-02-10 11:36:56
IZ3VIV-15 95 2019-02-10 10:50:00 2019-02-17 05:54:26 JN55JO > JN55PJ 27.8 miles 121° 2019-02-17 05:29:13
IQ4SC 68 2019-02-10 10:59:54 2019-02-17 05:35:20 JN55NQ > JN54IO 77.4 miles 195° 2019-02-10 11:35:09
IR4UCI-11 11 2019-02-10 11:18:50 2019-02-17 05:38:19 JN55MP > JN54MM 76.3 miles 181° 2019-02-10 11:18:50
IU2GOH 24 2019-02-10 11:11:50 2019-02-17 05:20:01 JN55NQ > JN55BL 48.5 miles 253° 2019-02-10 11:35:53
IQ3VO 123 2019-02-08 11:06:56 2019-02-17 06:03:37 JN55LK > JN55MQ 19.6 miles 14° 2019-02-08 11:06:56
IZ4GWE 8 2019-02-10 11:16:59 2019-02-10 11:55:06 JN55MQ > JN64CK 103.5 miles 147° 2019-02-10 11:32:54
S56JCH-10 1 2019-02-10 11:53:02 2019-02-10 11:53:02 JN55NO > JN75DS 154.7 miles 85° 2019-02-10 11:53:02
IK3YBX-10 8 2019-02-10 11:19:16 2019-02-10 12:05:35 JN55MP > JN65DM 60.7 miles 97° 2019-02-10 11:19:46
T79PRS 7 2019-02-10 11:19:03 2019-02-10 11:55:06 JN55MQ > JN63FV 140.9 miles 150° 2019-02-10 11:32:40
9A1AYZ-12 1 2019-02-10 11:41:42 2019-02-10 11:41:42 JN55NP > JN74LT 197.8 miles 105° 2019-02-10 11:41:42
IR3EP-11 9 2019-02-10 11:23:02 2019-02-10 12:05:37 JN55MQ > JN55SK 28.0 miles 126° 2019-02-10 11:31:15
IR2DQ 40 2019-02-10 11:11:51 2019-02-17 05:30:37 JN55NQ > JN55AD 63.2 miles 237° 2019-02-10 11:36:26
IZ4GJM-11 36 2019-02-10 11:02:58 2019-02-10 12:07:02 JN55MQ > JN54MO 75.7 miles 181° 2019-02-10 11:33:45
IW2GOB-12 11 2019-02-10 11:29:54 2019-02-10 12:07:04 JN55NP > JN45SH 79.9 miles 253° 2019-02-10 11:40:45
IR2BP 69 2019-02-10 10:41:14 2019-02-17 06:02:31 JN55NP > JN55DN 39.8 miles 260° 2019-02-10 11:41:11
IQ3ZF 129 2019-02-08 11:06:25 2019-02-17 06:06:08 JN55NQ > JN55KL 17.1 miles 218° 2019-02-10 11:35:55

Only position packets which were originated by the station are shown here. The range statistics show some extra long hops, because some digipeaters do not correctly add themselves to the digipeater path. Please check the raw packets.
About this site
This page shows real-time information collected from the Automatic Position Reporting System Internet network (APRS-IS). APRS is used by amateur (ham) radio operators to transmit real-time position information, weather data, telemetry and messages over the radio. A vehicle equipped with a GPS receiver, a VHF transmitter or HF transceiver and a small computer device called a tracker transmits it's location, speed and course in a small data packet, which is then received by a nearby iGate receiving site which forwards the packet on the Internet. Systems connected to the Internet can send information on the APRS-IS without a radio transmitter, or collect and display information transmitted anywhere in the world.
FAQ · Blog · Discussion group · Linking to aprs.fi · AIS sites · Service status · Database statistics · Advertising on aprs.fi · Technical details · API · Change log · Planned changes · Credits and thanks · Terms Of Service · iPhone/iPad APRS